createdAt,value
2018-07-26T00:01:18.348Z,71.20
2018-07-26T00:03:47.483Z,71.10
2018-07-26T00:06:16.746Z,71.20
2018-07-26T00:08:45.908Z,71.20
2018-07-26T00:11:15.202Z,71.20
2018-07-26T00:13:44.314Z,71.10
2018-07-26T00:16:13.394Z,71.30
2018-07-26T00:18:42.720Z,71.30
2018-07-26T00:21:12.954Z,71.50
2018-07-26T00:23:42.091Z,71.50
2018-07-26T00:26:11.220Z,71.60
2018-07-26T00:28:40.307Z,71.80
2018-07-26T00:31:09.473Z,71.80
2018-07-26T00:33:39.793Z,71.90
2018-07-26T00:36:09.319Z,72.00
2018-07-26T00:38:38.772Z,72.10
2018-07-26T00:41:07.992Z,72.30
2018-07-26T00:43:37.146Z,72.30
2018-07-26T00:46:06.427Z,72.40
2018-07-26T00:48:35.599Z,72.60
2018-07-26T10:34:19.712Z,43.10
2018-07-26T10:36:51.335Z,42.80
2018-07-26T10:39:21.729Z,42.60
2018-07-26T10:41:52.073Z,42.30
2018-07-26T10:44:22.032Z,41.90
2018-07-26T10:46:52.767Z,41.80
2018-07-26T10:49:23.575Z,41.70
2018-07-26T10:51:54.387Z,41.60
2018-07-26T10:54:25.054Z,41.70
2018-07-26T10:56:55.310Z,41.40
2018-07-26T10:59:26.928Z,41.10
2018-07-26T11:01:58.046Z,41.10
2018-07-26T11:04:42.092Z,41.00
2018-07-26T11:07:16.332Z,40.90
2018-07-26T11:09:48.450Z,41.20
2018-07-26T11:12:21.225Z,41.10
2018-07-26T11:14:52.905Z,40.90
2018-07-26T11:17:22.371Z,41.10
2018-07-26T11:19:52.117Z,41.40
2018-07-26T11:22:22.154Z,41.20
2018-07-26T11:24:55.742Z,41.10
2018-07-26T11:27:26.585Z,40.30
2018-07-26T11:29:57.492Z,39.60
2018-07-26T11:32:26.857Z,39.40
2018-07-26T11:34:57.184Z,39.50
2018-07-26T11:37:27.415Z,39.40
2018-07-26T11:39:57.016Z,39.10
2018-07-26T11:42:26.693Z,38.40
2018-07-26T11:44:57.133Z,37.60
2018-07-26T11:47:28.497Z,36.50
2018-07-26T11:49:58.035Z,35.80
2018-07-26T11:52:28.053Z,34.40
2018-07-26T11:54:58.216Z,33.50
2018-07-26T11:57:31.496Z,31.90
2018-07-26T12:00:04.034Z,31.60
2018-07-26T12:02:34.932Z,31.30
2018-07-26T12:05:09.711Z,30.50
2018-07-26T12:07:43.436Z,30.40
2018-07-26T12:10:15.437Z,30.00
2018-07-26T12:12:46.560Z,29.90
2018-07-26T12:15:16.251Z,29.90
2018-07-26T12:17:48.128Z,29.70
2018-07-26T12:20:19.226Z,29.70
2018-07-26T12:22:49.141Z,29.60
2018-07-26T12:25:18.929Z,29.20
2018-07-26T12:27:49.614Z,29.10
2018-07-26T12:30:19.212Z,28.80
2018-07-26T12:32:48.648Z,28.40
2018-07-26T12:35:18.222Z,28.30
2018-07-26T12:37:47.387Z,28.40
2018-07-26T12:40:16.490Z,28.90
2018-07-26T12:42:45.974Z,29.20
2018-07-26T12:45:18.693Z,29.20
2018-07-26T12:47:48.923Z,29.00
2018-07-26T12:50:18.343Z,29.10
2018-07-26T12:52:48.079Z,29.50
2018-07-26T12:55:18.106Z,29.60
2018-07-26T12:57:48.018Z,29.80
2018-07-26T13:00:17.681Z,30.50
2018-07-26T13:02:47.307Z,31.40
2018-07-26T13:05:17.238Z,32.30
2018-07-26T13:07:46.531Z,32.80
2018-07-26T13:10:15.673Z,32.70
2018-07-26T13:12:45.366Z,32.60
2018-07-26T13:15:14.504Z,32.70
2018-07-26T13:17:43.867Z,32.50
2018-07-26T13:20:13.607Z,32.40
2018-07-26T13:22:43.440Z,32.40
2018-07-26T13:25:12.632Z,32.00
2018-07-26T13:27:42.405Z,31.80
2018-07-26T13:30:12.147Z,30.70
2018-07-26T13:32:42.097Z,30.20
2018-07-26T13:35:11.492Z,30.40
2018-07-26T13:37:40.626Z,31.00
2018-07-26T13:40:09.837Z,31.60
2018-07-26T13:42:39.029Z,32.00
2018-07-26T13:45:08.893Z,32.40
2018-07-26T13:47:38.285Z,32.90
2018-07-26T13:50:07.542Z,33.70
2018-07-26T13:52:36.855Z,34.30
2018-07-26T13:55:06.162Z,34.00
2018-07-26T13:57:35.299Z,32.80
2018-07-26T14:00:04.835Z,31.80
2018-07-26T14:02:34.673Z,31.00
2018-07-26T14:05:03.901Z,30.60
2018-07-26T14:07:33.877Z,30.00
2018-07-26T14:10:05.227Z,29.50
2018-07-26T14:12:36.253Z,29.00
2018-07-26T14:15:08.890Z,28.80
2018-07-26T14:17:40.469Z,28.60
2018-07-26T14:20:12.602Z,28.30
2018-07-26T14:22:43.012Z,28.00
2018-07-26T14:25:14.159Z,28.20
2018-07-26T14:27:46.067Z,28.30
2018-07-26T14:30:17.986Z,28.60
2018-07-26T14:32:47.985Z,29.10
2018-07-26T14:35:17.911Z,29.50
2018-07-26T14:37:48.395Z,29.40
2018-07-26T14:40:18.479Z,28.80
2018-07-26T14:42:49.908Z,28.70
2018-07-26T14:45:19.962Z,28.50
2018-07-26T14:47:50.918Z,28.20
2018-07-26T14:50:21.812Z,27.80
2018-07-26T14:52:51.977Z,27.50
2018-07-26T14:55:22.557Z,27.20
2018-07-26T14:57:54.669Z,27.10
2018-07-26T15:00:25.525Z,26.70
2018-07-26T15:02:54.981Z,26.30
2018-07-26T15:05:24.129Z,26.10
2018-07-26T15:07:53.337Z,26.30
2018-07-26T15:10:23.030Z,26.40
2018-07-26T15:12:53.373Z,26.40
2018-07-26T15:15:23.192Z,26.10
2018-07-26T15:17:53.184Z,25.70
2018-07-26T15:20:31.601Z,25.70
2018-07-26T15:23:06.701Z,25.90
2018-07-26T15:25:40.343Z,25.90
2018-07-26T15:28:13.552Z,26.00
2018-07-26T15:30:45.162Z,26.10
2018-07-26T15:33:17.295Z,26.30
2018-07-26T15:35:47.389Z,26.10
2018-07-26T15:38:20.509Z,26.10
2018-07-26T15:40:51.351Z,26.10
2018-07-26T15:43:21.186Z,26.20
2018-07-26T15:45:51.219Z,26.00
2018-07-26T15:48:22.325Z,26.10
2018-07-26T15:50:53.228Z,26.00
2018-07-26T15:53:24.526Z,26.00
2018-07-26T15:55:54.828Z,26.00
2018-07-26T15:58:27.600Z,25.70
2018-07-26T16:01:00.169Z,25.90
2018-07-26T16:03:30.472Z,26.10
2018-07-26T16:06:02.431Z,25.80
2018-07-26T16:08:34.090Z,25.90
2018-07-26T16:11:04.458Z,25.60
2018-07-26T16:13:34.721Z,25.50
2018-07-26T16:16:04.634Z,25.60
2018-07-26T16:18:34.641Z,25.80
2018-07-26T16:21:04.899Z,26.00
2018-07-26T16:23:34.562Z,25.90
2018-07-26T16:26:05.614Z,26.00
2018-07-26T16:28:36.004Z,26.00
2018-07-26T16:31:05.799Z,26.00
2018-07-26T16:33:35.524Z,26.00
2018-07-26T16:36:05.195Z,26.10
2018-07-26T16:38:35.007Z,26.20
2018-07-26T16:41:04.247Z,26.20
2018-07-26T16:43:34.166Z,26.40
2018-07-26T16:46:04.425Z,26.40
2018-07-26T16:48:34.034Z,26.30
2018-07-26T16:51:03.768Z,26.40
2018-07-26T16:53:33.655Z,26.50
2018-07-26T16:56:07.694Z,26.50
2018-07-26T16:58:38.071Z,26.30
2018-07-26T17:01:07.612Z,26.30
2018-07-26T17:03:37.617Z,26.60
2018-07-26T17:06:07.438Z,26.80
2018-07-26T17:08:37.775Z,26.70
2018-07-26T17:11:07.928Z,27.00
2018-07-26T17:13:38.070Z,27.10
2018-07-26T17:16:08.102Z,27.30
2018-07-26T17:18:38.387Z,27.40
2018-07-26T17:21:08.479Z,27.60
2018-07-26T17:23:39.115Z,27.60
2018-07-26T17:26:08.828Z,27.40
2018-07-26T17:28:38.959Z,27.60
2018-07-26T17:31:08.898Z,27.70
2018-07-26T17:33:38.919Z,27.90
2018-07-26T17:36:09.445Z,27.90
2018-07-26T17:38:38.684Z,28.00
2018-07-26T17:41:09.030Z,28.00
2018-07-26T17:43:39.255Z,28.00
2018-07-26T17:46:08.843Z,28.10
2018-07-26T17:48:38.815Z,28.20
2018-07-26T17:51:08.054Z,28.40
2018-07-26T17:53:38.093Z,28.60
2018-07-26T17:56:07.783Z,28.70
2018-07-26T17:58:37.495Z,28.90
2018-07-26T18:01:07.890Z,29.00
2018-07-26T18:03:37.932Z,29.00
2018-07-26T18:06:07.620Z,29.30
2018-07-26T18:08:37.859Z,29.40
2018-07-26T18:11:07.677Z,29.60
2018-07-26T18:13:37.323Z,30.00
2018-07-26T18:16:06.661Z,30.30
2018-07-26T18:18:36.345Z,30.50
2018-07-26T18:21:05.687Z,30.90
2018-07-26T18:23:34.868Z,31.30
2018-07-26T18:26:04.505Z,31.50
2018-07-26T18:28:33.749Z,31.80
2018-07-26T18:31:12.469Z,32.10
2018-07-26T18:33:41.609Z,32.50
